createdAt,value
2018-02-10T00:00:27.861Z,60.40
2018-02-10T00:02:55.459Z,60.40
2018-02-10T00:05:23.046Z,60.40
2018-02-10T00:07:51.431Z,60.40
2018-02-10T00:10:19.009Z,60.20
2018-02-10T00:12:47.353Z,60.30
2018-02-10T00:15:14.920Z,60.20
2018-02-10T00:17:42.500Z,60.20
2018-02-10T00:20:10.067Z,60.20
2018-02-10T00:22:37.758Z,60.00
2018-02-10T00:25:05.343Z,60.00
2018-02-10T00:27:32.948Z,60.10
2018-02-10T00:30:00.636Z,60.10
2018-02-10T00:32:28.255Z,60.10
2018-02-10T00:34:55.826Z,60.10
2018-02-10T00:37:23.419Z,60.10
2018-02-10T00:39:51.010Z,60.20
2018-02-10T00:42:19.354Z,60.40
2018-02-10T00:44:46.985Z,60.40
2018-02-10T00:47:14.661Z,60.40
2018-02-10T00:49:42.235Z,60.40
2018-02-10T00:52:09.824Z,60.40
2018-02-10T00:54:37.510Z,60.40
2018-02-10T00:57:05.091Z,60.20
2018-02-10T00:59:32.686Z,60.30
2018-02-10T01:02:00.349Z,60.10
2018-02-10T01:04:27.972Z,60.20
2018-02-10T01:06:55.576Z,60.20
2018-02-10T01:09:23.258Z,60.20
2018-02-10T01:11:50.886Z,60.20
2018-02-10T01:14:18.450Z,60.20
2018-02-10T01:16:46.037Z,60.20
2018-02-10T01:19:13.626Z,60.30
2018-02-10T01:21:41.210Z,60.20
2018-02-10T01:24:08.871Z,60.20
2018-02-10T01:26:36.452Z,60.20
2018-02-10T01:29:04.074Z,60.30
2018-02-10T01:31:32.445Z,60.50
2018-02-10T01:34:00.054Z,60.40
2018-02-10T01:36:27.642Z,60.40
2018-02-10T01:38:55.271Z,60.40
2018-02-10T01:41:22.880Z,60.50
2018-02-10T01:43:50.497Z,60.50
2018-02-10T01:46:18.083Z,60.70
2018-02-10T01:48:45.678Z,60.60
2018-02-10T01:51:13.995Z,60.50
2018-02-10T01:53:41.574Z,60.50
2018-02-10T01:56:09.193Z,60.40
2018-02-10T01:58:36.814Z,60.40
2018-02-10T02:01:04.391Z,60.40
2018-02-10T02:03:31.992Z,60.40
2018-02-10T02:05:59.576Z,60.30
2018-02-10T02:08:27.193Z,60.30
2018-02-10T02:10:54.772Z,60.50
2018-02-10T02:13:22.397Z,60.30
2018-02-10T02:15:50.031Z,60.30
2018-02-10T02:18:17.702Z,60.30
2018-02-10T02:20:45.269Z,60.30
2018-02-10T02:23:12.864Z,60.30
2018-02-10T02:25:40.532Z,60.30
2018-02-10T02:28:08.163Z,60.30
2018-02-10T02:30:36.496Z,60.20
2018-02-10T02:33:04.166Z,60.20
2018-02-10T02:35:31.772Z,60.10
2018-02-10T02:37:59.381Z,60.00
2018-02-10T02:40:26.939Z,60.10
2018-02-10T02:42:55.296Z,60.00
2018-02-10T02:45:22.866Z,60.00
2018-02-10T02:47:50.456Z,60.00
2018-02-10T02:50:18.028Z,60.00
2018-02-10T02:52:45.625Z,60.00
2018-02-10T02:55:13.229Z,60.00
2018-02-10T02:57:40.844Z,60.00
2018-02-10T03:00:08.441Z,60.10
2018-02-10T03:02:36.772Z,60.00
2018-02-10T03:05:04.414Z,59.90
2018-02-10T03:07:31.972Z,59.90
2018-02-10T03:10:00.334Z,60.00
2018-02-10T03:12:27.917Z,59.90
2018-02-10T03:14:55.515Z,60.00
2018-02-10T03:17:23.105Z,60.10
2018-02-10T03:19:50.709Z,60.00
2018-02-10T03:22:18.302Z,59.90
2018-02-10T03:24:45.895Z,60.00
2018-02-10T03:27:13.500Z,59.90
2018-02-10T03:29:41.067Z,59.90
2018-02-10T03:32:08.642Z,59.90
2018-02-10T03:34:36.219Z,59.90
2018-02-10T03:37:03.816Z,59.90
2018-02-10T03:39:31.398Z,59.80
2018-02-10T03:41:58.998Z,59.70
2018-02-10T03:44:27.359Z,59.80
2018-02-10T03:46:54.970Z,59.70
2018-02-10T03:49:23.294Z,59.70
2018-02-10T03:51:50.949Z,59.70
2018-02-10T03:54:18.510Z,59.70
2018-02-10T03:56:46.110Z,59.70
2018-02-10T03:59:13.672Z,59.70
2018-02-10T04:01:41.263Z,59.70
2018-02-10T04:04:08.831Z,59.70
2018-02-10T04:06:36.395Z,59.80
2018-02-10T04:09:03.977Z,59.70
2018-02-10T04:11:31.548Z,59.70
2018-02-10T04:13:59.110Z,59.70
2018-02-10T04:16:26.676Z,59.70
2018-02-10T04:18:54.266Z,59.70
2018-02-10T04:21:21.888Z,59.80
2018-02-10T04:23:50.229Z,59.80
2018-02-10T04:26:17.795Z,59.70
2018-02-10T04:28:45.363Z,59.70
2018-02-10T04:31:12.941Z,59.70
2018-02-10T04:33:40.512Z,59.70
2018-02-10T04:36:08.087Z,59.70
2018-02-10T04:38:35.654Z,59.70
2018-02-10T04:41:03.230Z,59.70
2018-02-10T04:43:30.826Z,59.70
2018-02-10T04:45:58.385Z,59.70
2018-02-10T04:48:25.963Z,59.70
2018-02-10T04:50:53.539Z,59.80
2018-02-10T04:53:21.121Z,59.70
2018-02-10T04:55:48.690Z,59.80
2018-02-10T04:58:16.286Z,59.80
2018-02-10T05:00:44.608Z,59.90
2018-02-10T05:03:12.179Z,59.70
2018-02-10T05:05:39.766Z,59.80
2018-02-10T05:08:07.538Z,59.80
2018-02-10T05:10:36.876Z,59.80
2018-02-10T05:13:04.491Z,59.80
2018-02-10T05:15:32.877Z,59.90
2018-02-10T05:18:01.235Z,59.80
2018-02-10T05:20:29.642Z,59.80
2018-02-10T05:22:57.210Z,59.70
2018-02-10T05:25:25.580Z,60.50
2018-02-10T05:27:53.167Z,59.70
2018-02-10T05:30:20.771Z,59.70
2018-02-10T05:32:49.441Z,59.70
2018-02-10T05:35:17.043Z,59.70
2018-02-10T05:37:45.415Z,59.80
2018-02-10T05:40:13.049Z,59.70
2018-02-10T05:42:40.708Z,59.80
2018-02-10T05:45:08.304Z,59.80
2018-02-10T05:47:35.885Z,59.80
2018-02-10T05:50:03.537Z,59.80
2018-02-10T05:52:31.121Z,59.90
2018-02-10T05:54:58.682Z,59.90
2018-02-10T05:57:26.299Z,59.70
2018-02-10T05:59:53.854Z,59.80
2018-02-10T06:02:21.434Z,59.80
2018-02-10T06:04:49.063Z,59.90
2018-02-10T06:07:16.673Z,59.90
2018-02-10T06:09:45.046Z,59.90
2018-02-10T06:12:12.618Z,59.90
2018-02-10T06:14:40.210Z,59.90
2018-02-10T06:17:07.779Z,59.80
2018-02-10T06:19:36.346Z,59.80
2018-02-10T06:22:04.034Z,59.80
2018-02-10T06:24:31.660Z,59.90
2018-02-10T06:27:00.007Z,60.00
2018-02-10T06:29:27.708Z,59.90
2018-02-10T06:31:56.048Z,60.10
2018-02-10T06:34:23.656Z,59.90
2018-02-10T06:36:51.250Z,60.00
2018-02-10T06:39:19.647Z,60.10
2018-02-10T06:41:48.003Z,60.00
2018-02-10T06:44:15.587Z,59.90
2018-02-10T06:46:43.937Z,60.10
2018-02-10T06:49:12.195Z,60.00
2018-02-10T06:51:40.553Z,60.10
2018-02-10T06:54:08.125Z,60.00
2018-02-10T06:56:35.704Z,60.00
2018-02-10T06:59:03.275Z,60.00
2018-02-10T07:01:30.844Z,60.10
2018-02-10T07:03:58.424Z,60.30
2018-02-10T07:06:26.782Z,60.10
2018-02-10T07:08:54.397Z,60.10
2018-02-10T07:11:22.746Z,60.10
2018-02-10T07:13:50.399Z,60.10
2018-02-10T07:16:17.986Z,60.10
2018-02-10T07:18:46.584Z,60.10
2018-02-10T07:21:14.237Z,60.20
2018-02-10T07:23:41.877Z,60.20
2018-02-10T07:26:10.236Z,60.30
2018-02-10T07:28:38.983Z,60.20
2018-02-10T07:31:06.578Z,60.30
2018-02-10T07:33:34.239Z,60.20
2018-02-10T07:36:01.856Z,60.30
2018-02-10T07:38:29.541Z,60.30
2018-02-10T07:40:58.304Z,60.50
2018-02-10T07:43:25.878Z,60.50
2018-02-10T07:45:53.476Z,60.40
2018-02-10T07:48:21.131Z,60.40
2018-02-10T07:50:48.707Z,60.50
2018-02-10T07:53:16.300Z,60.60
2018-02-10T07:55:44.661Z,60.60
2018-02-10T07:58:12.223Z,60.50
2018-02-10T08:00:39.812Z,60.60
2018-02-10T08:03:07.402Z,60.50
2018-02-10T08:05:34.997Z,60.50
2018-02-10T08:08:02.621Z,60.40
2018-02-10T08:10:30.278Z,60.30
2018-02-10T08:12:57.956Z,60.40
2018-02-10T08:15:25.592Z,60.40
2018-02-10T08:17:55.105Z,60.60
2018-02-10T08:20:24.624Z,60.60
2018-02-10T08:22:52.323Z,60.50
2018-02-10T08:25:19.925Z,60.60
2018-02-10T08:27:47.593Z,60.60
2018-02-10T08:30:15.273Z,60.60
2018-02-10T08:32:42.877Z,60.80
2018-02-10T08:35:10.475Z,60.80
2018-02-10T08:37:38.177Z,60.90
2018-02-10T08:40:05.813Z,60.80
2018-02-10T08:42:33.407Z,60.70
2018-02-10T08:45:01.535Z,60.90
2018-02-10T08:47:29.157Z,60.90
2018-02-10T08:49:57.585Z,60.80
2018-02-10T08:52:25.247Z,60.70
2018-02-10T08:54:52.882Z,60.70
2018-02-10T08:57:20.532Z,60.80
2018-02-10T08:59:48.124Z,60.50
2018-02-10T09:02:16.481Z,60.40
2018-02-10T09:04:44.079Z,60.40
2018-02-10T09:07:11.665Z,60.30
2018-02-10T09:09:39.543Z,60.30
2018-02-10T09:12:07.774Z,60.40
2018-02-10T09:14:35.384Z,60.50
2018-02-10T09:17:03.036Z,60.50
2018-02-10T09:19:30.799Z,60.50
2018-02-10T09:21:58.418Z,60.60
2018-02-10T09:24:26.852Z,60.50
2018-02-10T09:26:55.141Z,60.50
2018-02-10T09:29:23.840Z,60.50
2018-02-10T09:31:51.507Z,60.40
2018-02-10T09:34:19.189Z,60.40
2018-02-10T09:36:47.548Z,60.50
2018-02-10T09:39:16.996Z,60.50
2018-02-10T09:41:44.932Z,60.40
2018-02-10T09:44:14.975Z,60.30
2018-02-10T09:46:43.359Z,60.30
2018-02-10T09:49:10.931Z,60.20
2018-02-10T09:51:38.756Z,60.20
2018-02-10T09:54:06.366Z,60.10
2018-02-10T09:56:34.024Z,60.00
2018-02-10T09:59:01.660Z,60.00
2018-02-10T10:01:29.400Z,59.90
2018-02-10T10:03:57.054Z,59.80
2018-02-10T10:06:25.477Z,59.80
2018-02-10T10:08:53.867Z,59.80
2018-02-10T10:11:21.569Z,59.60
2018-02-10T10:13:49.930Z,59.70
2018-02-10T10:16:17.893Z,59.60
2018-02-10T10:18:45.480Z,59.60
2018-02-10T10:21:13.197Z,59.70
2018-02-10T10:23:40.797Z,59.70
2018-02-10T10:26:08.482Z,59.60
2018-02-10T10:28:36.092Z,59.60
2018-02-10T10:31:03.805Z,59.60
2018-02-10T10:33:31.520Z,59.50
2018-02-10T10:35:59.135Z,59.40
2018-02-10T10:38:27.604Z,59.30
2018-02-10T10:40:55.255Z,59.40
2018-02-10T10:43:22.832Z,59.40
2018-02-10T10:45:51.303Z,59.30
2018-02-10T10:48:19.026Z,59.20
2018-02-10T10:50:48.396Z,59.20
2018-02-10T10:53:16.055Z,59.10
2018-02-10T10:55:43.736Z,59.00
2018-02-10T10:58:12.265Z,59.10
2018-02-10T11:00:40.690Z,59.00
2018-02-10T11:03:08.315Z,58.90
2018-02-10T11:05:36.752Z,58.80
2018-02-10T11:08:04.991Z,58.80
2018-02-10T11:10:33.188Z,58.80
2018-02-10T11:13:00.825Z,58.80
2018-02-10T11:15:28.466Z,58.70
2018-02-10T11:17:56.161Z,58.50
2018-02-10T11:20:23.763Z,58.50
2018-02-10T11:22:51.378Z,58.30
2018-02-10T11:25:19.756Z,58.20
2018-02-10T11:27:47.374Z,58.00
2018-02-10T11:30:14.939Z,58.40
2018-02-10T11:32:42.527Z,58.50
2018-02-10T11:36:33.984Z,58.60
2018-02-10T11:39:01.893Z,58.50
2018-02-10T11:41:29.602Z,58.50
2018-02-10T11:43:58.358Z,58.50
2018-02-10T11:46:26.226Z,58.40
2018-02-10T11:48:53.916Z,58.40
2018-02-10T11:51:22.482Z,58.40
2018-02-10T11:53:50.457Z,58.40
2018-02-10T11:56:18.977Z,58.30
2018-02-10T11:58:46.661Z,58.30
2018-02-10T12:01:15.623Z,58.20
2018-02-10T12:03:44.142Z,58.40
2018-02-10T12:06:11.715Z,58.30
2018-02-10T12:08:39.367Z,58.20
2018-02-10T12:11:06.962Z,58.30
2018-02-10T12:13:35.353Z,58.20
2018-02-10T12:22:10.103Z,58.00
2018-02-10T12:24:37.889Z,57.90
2018-02-10T12:27:05.511Z,58.60
2018-02-10T12:29:34.347Z,57.90
2018-02-10T12:32:01.964Z,57.80
2018-02-10T12:34:30.382Z,57.80
2018-02-10T12:36:59.053Z,57.70
2018-02-10T12:39:27.626Z,57.80
2018-02-10T12:41:55.373Z,57.80
2018-02-10T12:44:23.185Z,57.80
2018-02-10T12:46:51.207Z,57.70
2018-02-10T12:49:25.470Z,57.70
2018-02-10T12:51:53.094Z,57.60
2018-02-10T12:54:20.744Z,57.80
2018-02-10T12:56:50.392Z,57.60
2018-02-10T12:59:18.756Z,57.90
2018-02-10T13:01:46.395Z,57.80
2018-02-10T13:04:14.012Z,57.90
2018-02-10T13:06:41.600Z,57.90
2018-02-10T13:09:09.923Z,58.10
2018-02-10T13:11:37.611Z,58.70
2018-02-10T13:14:05.210Z,58.20
2018-02-10T13:16:32.820Z,58.10
2018-02-10T13:19:01.047Z,58.00
2018-02-10T13:21:29.029Z,58.00
2018-02-10T13:23:58.436Z,58.20
2018-02-10T13:26:26.124Z,58.10
2018-02-10T13:28:54.087Z,58.30
2018-02-10T13:31:21.784Z,58.40
2018-02-10T13:33:49.460Z,58.30
2018-02-10T13:36:18.057Z,58.10
2018-02-10T13:38:45.766Z,58.00
2018-02-10T13:41:13.720Z,58.20
2018-02-10T13:43:41.391Z,58.10
2018-02-10T13:46:09.002Z,58.20
2018-02-10T13:48:38.388Z,58.20
2018-02-10T13:51:06.018Z,58.00
2018-02-10T13:53:33.677Z,58.10
2018-02-10T13:56:02.043Z,58.20
2018-02-10T13:58:30.488Z,58.60
2018-02-10T14:00:58.139Z,58.20
2018-02-10T14:03:27.387Z,58.50
2018-02-10T14:05:55.022Z,58.30
2018-02-10T14:08:23.394Z,58.50
2018-02-10T14:10:51.048Z,58.40
2018-02-10T14:13:18.621Z,58.50
2018-02-10T14:15:47.068Z,58.60
2018-02-10T14:18:14.717Z,58.50
2018-02-10T14:20:43.150Z,58.70
2018-02-10T14:23:10.734Z,58.60
2018-02-10T14:25:38.925Z,58.70
2018-02-10T14:28:06.490Z,58.50
2018-02-10T14:30:34.074Z,58.70
2018-02-10T14:33:01.746Z,58.90
2018-02-10T14:35:30.141Z,59.00
2018-02-10T14:37:57.751Z,59.00
2018-02-10T14:40:25.416Z,58.80
2018-02-10T14:42:53.000Z,58.80
2018-02-10T14:45:21.462Z,58.90
2018-02-10T14:47:49.715Z,58.80
2018-02-10T14:50:17.360Z,58.80
2018-02-10T14:52:45.750Z,59.10
2018-02-10T14:55:15.489Z,59.10
2018-02-10T14:57:43.258Z,59.00
2018-02-10T15:00:12.003Z,59.20
2018-02-10T15:02:40.545Z,59.10
2018-02-10T15:05:08.209Z,59.00
2018-02-10T15:07:36.575Z,59.10
2018-02-10T15:10:04.151Z,59.00
2018-02-10T15:12:31.713Z,59.10
2018-02-10T15:14:59.335Z,59.20
2018-02-10T15:17:27.717Z,59.30
2018-02-10T15:19:56.418Z,59.40
2018-02-10T15:22:24.806Z,59.30
2018-02-10T15:24:53.382Z,59.40
2018-02-10T15:27:21.762Z,59.30
2018-02-10T15:30:01.239Z,59.40
2018-02-10T15:32:41.409Z,58.90
2018-02-10T15:35:09.814Z,59.50
2018-02-10T15:37:38.146Z,59.70
2018-02-10T15:40:06.298Z,59.60
2018-02-10T15:42:34.654Z,59.60
2018-02-10T15:45:02.323Z,59.60
2018-02-10T15:47:29.936Z,59.70
2018-02-10T15:49:58.313Z,59.70
2018-02-10T15:52:26.697Z,59.70
2018-02-10T15:54:54.532Z,59.60
2018-02-10T15:57:22.402Z,59.70
2018-02-10T15:59:50.056Z,59.60
2018-02-10T16:02:18.386Z,59.70
2018-02-10T16:04:46.045Z,59.60
2018-02-10T16:07:13.797Z,59.70
2018-02-10T16:09:42.146Z,59.70
2018-02-10T16:12:10.511Z,60.30
2018-02-10T16:14:38.440Z,59.80
2018-02-10T16:17:08.106Z,59.90
2018-02-10T16:19:35.687Z,59.80
2018-02-10T16:22:04.402Z,59.80
2018-02-10T16:24:32.307Z,59.80
2018-02-10T16:27:00.309Z,60.60
2018-02-10T16:29:28.309Z,59.90
2018-02-10T16:31:56.066Z,59.90
2018-02-10T16:34:24.570Z,60.10
2018-02-10T16:36:52.260Z,59.90
2018-02-10T16:39:19.910Z,60.00
2018-02-10T16:41:47.617Z,60.10
2018-02-10T16:44:15.281Z,60.10
2018-02-10T16:46:43.051Z,60.10
2018-02-10T16:49:10.706Z,60.20
2018-02-10T16:51:38.476Z,60.30
2018-02-10T16:54:06.880Z,60.50
2018-02-10T16:56:34.601Z,60.40
2018-02-10T16:59:02.987Z,60.80
2018-02-10T17:01:30.577Z,60.80
2018-02-10T17:03:58.143Z,60.70
2018-02-10T17:06:25.723Z,60.70
2018-02-10T17:08:53.305Z,60.80
2018-02-10T17:11:20.895Z,60.90
2018-02-10T17:13:49.225Z,60.90
2018-02-10T17:16:16.880Z,60.90
2018-02-10T17:18:44.599Z,60.90
2018-02-10T17:21:12.236Z,60.90
2018-02-10T17:23:39.985Z,61.00
2018-02-10T17:26:07.655Z,61.10
2018-02-10T17:28:35.220Z,61.20
2018-02-10T17:31:03.603Z,61.40
2018-02-10T17:33:31.677Z,61.10
2018-02-10T17:35:59.481Z,61.20
2018-02-10T17:38:27.858Z,61.40
2018-02-10T17:40:55.420Z,61.30
2018-02-10T17:43:23.031Z,61.40
2018-02-10T17:45:50.606Z,61.40
2018-02-10T17:48:18.180Z,61.40
2018-02-10T17:50:45.738Z,61.50
2018-02-10T17:53:14.177Z,61.60
2018-02-10T17:55:41.781Z,61.60
2018-02-10T17:58:09.358Z,61.60
2018-02-10T18:00:37.778Z,61.70
2018-02-10T18:03:05.515Z,61.70
2018-02-10T18:05:33.119Z,61.70
2018-02-10T18:08:00.739Z,61.60
2018-02-10T18:10:29.133Z,61.80
2018-02-10T18:12:56.729Z,61.90
2018-02-10T18:15:24.376Z,61.80
2018-02-10T18:17:52.010Z,61.80
2018-02-10T18:20:19.659Z,61.80
2018-02-10T18:22:48.008Z,62.10
2018-02-10T18:25:15.573Z,62.00
2018-02-10T18:27:43.462Z,62.10
2018-02-10T18:30:11.906Z,62.10
2018-02-10T18:32:39.894Z,62.00
2018-02-10T18:35:07.490Z,62.00
2018-02-10T18:37:35.109Z,62.10
2018-02-10T18:40:02.682Z,62.00
2018-02-10T18:42:30.251Z,62.20
2018-02-10T18:44:57.825Z,62.10
2018-02-10T18:47:25.467Z,62.00
2018-02-10T18:49:53.532Z,62.20
2018-02-10T18:52:22.219Z,62.00
2018-02-10T18:54:49.879Z,62.20
2018-02-10T18:57:17.590Z,62.20
2018-02-10T18:59:46.454Z,62.20
2018-02-10T19:02:14.331Z,62.20
2018-02-10T19:04:42.889Z,62.30
2018-02-10T19:07:10.487Z,62.30
2018-02-10T19:09:38.197Z,62.40
2018-02-10T19:12:05.850Z,62.30
2018-02-10T19:14:34.235Z,62.30
2018-02-10T19:17:02.597Z,62.40
2018-02-10T19:19:30.218Z,62.30
2018-02-10T19:21:57.820Z,62.30
2018-02-10T19:24:25.384Z,62.30
2018-02-10T19:26:52.944Z,62.40
2018-02-10T19:29:20.601Z,62.50
2018-02-10T19:31:48.993Z,62.60
2018-02-10T19:34:17.480Z,62.70
2018-02-10T19:36:45.848Z,62.70
2018-02-10T19:39:13.428Z,62.70
2018-02-10T19:41:41.629Z,62.70
2018-02-10T19:44:09.237Z,62.70
2018-02-10T19:46:36.830Z,62.80
2018-02-10T19:49:04.524Z,62.70
2018-02-10T19:51:32.225Z,62.70
2018-02-10T19:54:01.440Z,62.70
2018-02-10T19:56:29.034Z,62.60
2018-02-10T19:58:57.111Z,62.60
2018-02-10T20:01:25.440Z,62.70
2018-02-10T20:03:53.126Z,62.70
2018-02-10T20:06:21.794Z,62.70
2018-02-10T20:08:49.385Z,62.80
2018-02-10T20:11:17.067Z,62.60
2018-02-10T20:13:44.704Z,62.70
2018-02-10T20:16:12.322Z,62.70
2018-02-10T20:18:40.253Z,62.80
2018-02-10T20:21:07.845Z,62.70
2018-02-10T20:23:36.970Z,62.70
2018-02-10T20:26:04.596Z,62.70
2018-02-10T20:28:33.189Z,62.70
2018-02-10T20:31:00.783Z,62.70
2018-02-10T20:33:28.500Z,62.60
2018-02-10T20:35:57.748Z,62.80
2018-02-10T20:38:25.519Z,62.70
2018-02-10T20:40:53.151Z,62.60
2018-02-10T20:43:21.082Z,62.60
2018-02-10T20:45:49.503Z,62.70
2018-02-10T20:48:17.143Z,62.60
2018-02-10T20:50:44.758Z,62.60
2018-02-10T20:53:12.507Z,62.60
2018-02-10T20:55:41.368Z,62.70
2018-02-10T20:58:09.486Z,62.50
2018-02-10T21:00:38.920Z,62.60
2018-02-10T21:03:06.730Z,63.30
2018-02-10T21:05:34.303Z,63.00
2018-02-10T21:08:02.644Z,62.90
2018-02-10T21:10:31.541Z,62.90
2018-02-10T21:13:00.655Z,62.70
2018-02-10T21:15:29.491Z,62.90
2018-02-10T21:17:57.139Z,62.70
2018-02-10T21:20:24.768Z,62.50
2018-02-10T21:22:52.360Z,63.30
2018-02-10T21:25:20.718Z,62.40
2018-02-10T21:27:48.344Z,62.40
2018-02-10T21:30:15.958Z,62.40
2018-02-10T21:32:43.543Z,62.40
2018-02-10T21:35:11.919Z,62.50
2018-02-10T21:37:39.509Z,62.50
2018-02-10T21:40:07.101Z,62.50
2018-02-10T21:42:35.503Z,62.70
2018-02-10T21:45:03.205Z,62.40
2018-02-10T21:47:30.778Z,62.40
2018-02-10T21:49:58.397Z,62.30
2018-02-10T21:52:26.008Z,62.50
2018-02-10T21:54:53.609Z,62.60
2018-02-10T21:57:21.240Z,62.40
2018-02-10T21:59:48.859Z,62.40
2018-02-10T22:02:16.478Z,62.30
2018-02-10T22:04:44.884Z,62.40
2018-02-10T22:07:12.475Z,62.20
2018-02-10T22:09:40.096Z,62.50
2018-02-10T22:12:07.743Z,62.60
2018-02-10T22:14:35.361Z,62.50
2018-02-10T22:17:03.716Z,62.50
2018-02-10T22:19:31.326Z,62.30
2018-02-10T22:21:59.675Z,62.30
2018-02-10T22:24:27.296Z,62.30
2018-02-10T22:26:54.877Z,62.30
2018-02-10T22:29:22.443Z,62.30
2018-02-10T22:31:50.114Z,62.30
2018-02-10T22:34:17.778Z,62.30
2018-02-10T22:36:46.163Z,62.30
2018-02-10T22:39:13.775Z,62.30
2018-02-10T22:41:41.423Z,62.20
2018-02-10T22:44:09.018Z,62.10
2018-02-10T22:46:36.734Z,62.10
2018-02-10T22:49:04.669Z,62.10
2018-02-10T22:51:33.635Z,62.10
2018-02-10T22:54:01.968Z,62.00
2018-02-10T22:56:30.214Z,61.80
2018-02-10T22:58:57.891Z,61.80
2018-02-10T23:01:28.728Z,61.80
2018-02-10T23:03:57.027Z,61.70
2018-02-10T23:06:26.619Z,61.50
2018-02-10T23:08:54.664Z,61.50
2018-02-10T23:11:22.316Z,61.30
2018-02-10T23:13:50.829Z,61.20
2018-02-10T23:16:18.709Z,61.20
2018-02-10T23:18:46.807Z,61.20
2018-02-10T23:21:14.636Z,61.20
2018-02-10T23:23:43.140Z,60.90
2018-02-10T23:26:10.751Z,60.70
2018-02-10T23:28:39.603Z,60.70
2018-02-10T23:31:08.520Z,60.50
2018-02-10T23:33:36.239Z,60.40
2018-02-10T23:36:04.372Z,60.40
2018-02-10T23:38:32.901Z,60.30
2018-02-10T23:41:00.991Z,60.10
2018-02-10T23:43:29.251Z,60.00
2018-02-10T23:45:56.953Z,60.00
2018-02-10T23:48:24.606Z,59.80
2018-02-10T23:50:52.991Z,59.90
2018-02-10T23:53:21.574Z,59.70
2018-02-10T23:55:50.357Z,59.70
2018-02-10T23:58:17.979Z,59.50
